Terminal Aerodrome Forecast
Issued by NWS Boston, MA

Current Version | Previous Version | Text Only | Print | Product List | Glossary On
Versions: 1 2 3 4 5 6 7 8 9 10 11 12 13 14 15 16 17 18 19 20 21 22 23 24 25 26 27 28 29 30 31 32 33 34 35 36 37 38 39 40 41 42 43 44 45 46 47 48
000
FTUS41 KBOX 211120
TAFBDL
TAF
KBDL 211120Z 2112/2218 00000KT 1/4SM -DZ FG OVC002
     FM211430 00000KT 2SM -DZ BR BKN008
     FM211600 16003KT P6SM BKN015
     FM212000 19007KT P6SM BKN045
     FM220400 20004KT 4SM BR BKN025
     FM221000 00000KT 6SM BR BKN015=

USA.gov is the U.S. government's official web portal to all federal, state and local government web resources and services.